createdAt,value
2023-03-22T00:01:22.909Z,13.60
2023-03-22T00:03:49.891Z,12.10
2023-03-22T00:06:16.696Z,11.90
2023-03-22T00:08:47.939Z,12.70
2023-03-22T00:11:23.530Z,12.10
2023-03-22T00:13:51.848Z,11.20
2023-03-22T00:16:18.494Z,11.10
2023-03-22T00:21:19.517Z,11.80
2023-03-22T00:23:46.081Z,9.90
2023-03-22T00:26:12.736Z,10.90
2023-03-22T00:28:40.063Z,12.70
2023-03-22T00:31:07.039Z,10.60
2023-03-22T00:33:34.348Z,11.80
2023-03-22T00:36:02.100Z,11.30
2023-03-22T00:38:43.226Z,12.20
2023-03-22T00:41:11.778Z,9.80
2023-03-22T00:43:39.776Z,11.00
2023-03-22T00:46:06.591Z,8.90
2023-03-22T00:48:33.278Z,11.00
2023-03-22T00:51:00.268Z,11.20
2023-03-22T00:53:29.802Z,11.50
2023-03-22T00:55:59.985Z,11.30
2023-03-22T00:58:27.840Z,12.20
2023-03-22T01:00:55.013Z,11.50
2023-03-22T01:03:22.410Z,10.90
2023-03-22T01:05:48.980Z,10.30
2023-03-22T01:08:16.073Z,12.10
2023-03-22T01:10:49.762Z,10.80
2023-03-22T01:13:17.890Z,9.50
2023-03-22T01:15:47.004Z,10.10
2023-03-22T01:18:13.985Z,9.40
2023-03-22T01:20:41.269Z,9.70
2023-03-22T01:23:07.824Z,10.30
2023-03-22T01:25:34.206Z,9.00
2023-03-22T01:28:02.018Z,9.90
2023-03-22T01:30:29.083Z,9.90
2023-03-22T01:32:56.585Z,10.20
2023-03-22T01:35:23.199Z,11.20
2023-03-22T01:37:49.973Z,8.40
2023-03-22T01:40:16.621Z,10.30
2023-03-22T01:42:44.214Z,10.20
2023-03-22T01:45:15.126Z,11.60
2023-03-22T01:47:44.292Z,11.30
2023-03-22T01:50:10.793Z,12.50
2023-03-22T01:52:37.451Z,10.90
2023-03-22T01:55:09.491Z,9.80
2023-03-22T01:57:48.116Z,11.10
2023-03-22T02:00:22.376Z,10.60
2023-03-22T02:03:08.500Z,9.60
2023-03-22T02:05:39.250Z,10.40
2023-03-22T02:08:08.452Z,10.40
2023-03-22T02:10:51.154Z,8.70
2023-03-22T02:13:21.433Z,9.90
2023-03-22T02:16:06.579Z,9.10
2023-03-22T02:19:08.848Z,9.90
2023-03-22T02:21:54.319Z,8.90
2023-03-22T02:24:32.134Z,10.00
2023-03-22T02:27:15.700Z,11.40
2023-03-22T02:29:59.913Z,9.80
2023-03-22T02:32:35.900Z,9.70
2023-03-22T02:35:15.978Z,9.10
2023-03-22T02:37:43.522Z,11.00
2023-03-22T02:40:11.689Z,11.70
2023-03-22T02:42:43.171Z,10.10
2023-03-22T02:45:12.801Z,9.80
2023-03-22T02:47:48.589Z,9.50
2023-03-22T02:50:27.740Z,10.50
2023-03-22T02:52:57.059Z,10.60
2023-03-22T02:55:25.599Z,11.50
2023-03-22T02:57:54.813Z,11.20
2023-03-22T03:00:21.546Z,9.70
2023-03-22T03:02:49.696Z,10.10
2023-03-22T03:05:16.610Z,11.60
2023-03-22T03:07:43.994Z,10.80
2023-03-22T03:10:11.954Z,11.50
2023-03-22T03:12:39.512Z,11.80
2023-03-22T03:15:13.038Z,11.30
2023-03-22T03:17:42.738Z,9.50
2023-03-22T03:20:29.335Z,11.40
2023-03-22T03:22:55.756Z,11.40
2023-03-22T03:25:24.965Z,13.50
2023-03-22T03:27:56.973Z,12.60
2023-03-22T03:30:27.670Z,13.50
2023-03-22T03:32:55.637Z,10.30
2023-03-22T03:35:24.762Z,11.40
2023-03-22T03:38:02.109Z,10.30
2023-03-22T03:40:32.659Z,12.90
2023-03-22T03:43:00.818Z,11.50
2023-03-22T03:45:27.378Z,12.30
2023-03-22T03:47:57.381Z,13.20
2023-03-22T03:50:24.525Z,13.20
2023-03-22T03:52:52.037Z,13.50
2023-03-22T03:55:18.985Z,13.50
2023-03-22T03:57:45.662Z,13.70
2023-03-22T04:00:14.322Z,13.60
2023-03-22T04:02:43.297Z,13.40
2023-03-22T04:05:17.786Z,11.00
2023-03-22T04:07:44.555Z,10.60
2023-03-22T04:10:11.030Z,11.70
2023-03-22T04:12:37.894Z,12.10
2023-03-22T04:15:16.695Z,14.00
2023-03-22T04:17:45.912Z,12.70
2023-03-22T04:20:13.202Z,14.00
2023-03-22T04:22:40.029Z,16.30
2023-03-22T04:25:13.641Z,10.60
2023-03-22T04:27:50.475Z,11.20
2023-03-22T04:30:21.688Z,13.40
2023-03-22T04:33:07.415Z,12.50
2023-03-22T04:36:09.544Z,13.40
2023-03-22T04:38:43.665Z,12.90
2023-03-22T04:41:14.840Z,14.80
2023-03-22T04:43:46.243Z,13.70
2023-03-22T04:46:14.942Z,14.60
2023-03-22T04:48:47.192Z,13.20
2023-03-22T04:51:13.804Z,13.80
2023-03-22T04:53:47.149Z,15.30
2023-03-22T04:56:14.182Z,15.80
2023-03-22T04:58:41.501Z,15.70
2023-03-22T05:01:14.764Z,15.90
2023-03-22T05:03:42.409Z,14.90
2023-03-22T05:06:09.034Z,15.70
2023-03-22T05:09:06.536Z,12.80
2023-03-22T05:11:33.369Z,14.50
2023-03-22T05:14:15.694Z,14.80
2023-03-22T05:16:43.219Z,13.70
2023-03-22T05:19:13.329Z,12.10
2023-03-22T05:21:43.442Z,13.70
2023-03-22T05:24:10.536Z,12.50
2023-03-22T05:26:41.601Z,12.50
2023-03-22T05:29:10.287Z,16.60
2023-03-22T05:31:59.265Z,16.20
2023-03-22T05:34:34.612Z,22.10
2023-03-22T05:37:03.640Z,22.40
2023-03-22T05:39:45.602Z,21.80
2023-03-22T05:42:13.281Z,20.00
2023-03-22T05:44:40.482Z,20.20
2023-03-22T05:47:09.394Z,16.50
2023-03-22T05:49:39.588Z,13.60
2023-03-22T05:52:07.528Z,18.20
2023-03-22T05:54:47.708Z,20.30
2023-03-22T05:57:14.308Z,19.90
2023-03-22T05:59:40.932Z,20.10
2023-03-22T06:02:11.403Z,19.60
2023-03-22T06:04:40.887Z,17.70
2023-03-22T06:07:11.894Z,20.20
2023-03-22T06:09:52.056Z,17.80
2023-03-22T06:12:31.448Z,17.80
2023-03-22T06:15:09.887Z,17.40
2023-03-22T06:17:48.675Z,17.10
2023-03-22T06:20:18.975Z,14.20
2023-03-22T06:22:54.352Z,15.00
2023-03-22T06:25:20.825Z,15.40
2023-03-22T06:27:48.476Z,13.80
2023-03-22T06:30:15.281Z,14.10
2023-03-22T06:33:04.616Z,14.80
2023-03-22T06:38:19.120Z,15.40
2023-03-22T06:40:47.347Z,13.80
2023-03-22T06:43:15.830Z,14.70
2023-03-22T06:45:47.191Z,13.00
2023-03-22T06:48:16.192Z,12.30
2023-03-22T06:51:00.974Z,11.80
2023-03-22T06:53:35.261Z,12.40
2023-03-22T06:56:04.223Z,11.80
2023-03-22T06:58:35.588Z,12.40
2023-03-22T07:01:03.847Z,11.80
2023-03-22T07:03:37.496Z,11.00
2023-03-22T07:06:10.673Z,13.20
2023-03-22T07:08:40.583Z,14.50
2023-03-22T07:11:15.064Z,14.30
2023-03-22T07:13:45.238Z,13.70
2023-03-22T07:16:19.360Z,13.60
2023-03-22T07:19:02.731Z,13.10
2023-03-22T07:21:30.907Z,14.00
2023-03-22T07:24:01.459Z,14.40
2023-03-22T07:26:31.212Z,14.00
2023-03-22T07:29:03.628Z,14.10
2023-03-22T07:31:36.561Z,14.20
2023-03-22T07:34:21.733Z,13.60
2023-03-22T07:37:03.121Z,12.20
2023-03-22T07:39:36.083Z,11.30
2023-03-22T07:42:05.548Z,11.90
2023-03-22T07:44:56.799Z,12.10
2023-03-22T07:47:40.089Z,11.40
2023-03-22T07:50:21.031Z,11.10
2023-03-22T07:52:53.765Z,10.40
2023-03-22T07:55:21.742Z,12.60
2023-03-22T07:57:49.690Z,11.50
2023-03-22T08:00:18.621Z,12.50
2023-03-22T08:02:54.184Z,11.50
2023-03-22T08:05:43.081Z,11.90
2023-03-22T08:08:13.798Z,9.00
2023-03-22T08:10:42.975Z,10.40
2023-03-22T08:13:11.141Z,9.70
2023-03-22T08:15:39.514Z,10.10
2023-03-22T08:18:08.785Z,10.40
2023-03-22T08:20:40.762Z,11.20
2023-03-22T08:23:16.853Z,11.30
2023-03-22T08:25:56.738Z,11.00
2023-03-22T08:28:24.819Z,10.90
2023-03-22T08:30:53.012Z,11.10
2023-03-22T08:33:23.744Z,10.50
2023-03-22T08:36:04.365Z,9.90
2023-03-22T08:38:32.311Z,6.70
2023-03-22T08:41:00.622Z,9.20
2023-03-22T08:43:29.277Z,10.10
2023-03-22T08:45:58.226Z,9.40
2023-03-22T08:48:29.142Z,8.20
2023-03-22T08:51:05.212Z,7.60
2023-03-22T08:53:52.144Z,9.00
2023-03-22T08:56:45.866Z,8.20
2023-03-22T08:59:22.442Z,10.10
2023-03-22T09:02:01.074Z,10.50
2023-03-22T09:04:31.446Z,9.50
2023-03-22T09:06:59.448Z,10.40
2023-03-22T09:09:27.301Z,9.60
2023-03-22T09:11:56.431Z,7.60
2023-03-22T09:14:24.786Z,7.20
2023-03-22T09:16:54.951Z,6.90
2023-03-22T09:19:22.855Z,6.10
2023-03-22T09:21:50.793Z,6.00
2023-03-22T09:24:29.925Z,6.90
2023-03-22T09:27:00.042Z,7.40
2023-03-22T09:29:28.139Z,7.70
2023-03-22T09:31:56.298Z,6.60
2023-03-22T09:34:28.568Z,5.50
2023-03-22T09:36:58.652Z,5.70
2023-03-22T09:39:30.266Z,4.20
2023-03-22T09:42:01.198Z,3.10
2023-03-22T09:44:32.765Z,4.40
2023-03-22T09:47:01.059Z,4.70
2023-03-22T09:49:50.555Z,3.20
2023-03-22T09:52:20.812Z,4.10
2023-03-22T09:54:50.439Z,4.80
2023-03-22T09:57:33.585Z,4.00
2023-03-22T10:00:21.063Z,3.00
2023-03-22T10:02:53.882Z,2.80
2023-03-22T10:05:34.854Z,3.60
2023-03-22T10:08:11.884Z,3.50
2023-03-22T10:10:42.019Z,2.30
2023-03-22T10:13:24.221Z,3.40
2023-03-22T10:15:55.928Z,2.00
2023-03-22T10:18:47.188Z,2.20
2023-03-22T10:21:15.802Z,1.90
2023-03-22T10:23:44.219Z,1.60
2023-03-22T10:26:20.102Z,2.10
2023-03-22T10:28:57.633Z,1.30
2023-03-22T10:31:26.697Z,1.10
2023-03-22T10:33:59.703Z,1.10
2023-03-22T10:36:31.212Z,0.90
2023-03-22T10:39:00.796Z,0.80
2023-03-22T10:41:29.398Z,0.90
2023-03-22T10:43:58.424Z,0.80
2023-03-22T10:46:27.758Z,0.80
2023-03-22T10:48:59.720Z,1.20
2023-03-22T10:51:29.186Z,1.10
2023-03-22T10:53:58.556Z,1.50
2023-03-22T10:56:26.353Z,1.10
2023-03-22T10:58:54.792Z,0.90
2023-03-22T11:01:28.622Z,0.90
2023-03-22T11:03:57.750Z,1.00
2023-03-22T11:06:27.226Z,1.50
2023-03-22T11:09:02.139Z,1.00
2023-03-22T11:11:31.032Z,1.80
2023-03-22T11:14:04.943Z,2.10
2023-03-22T11:16:40.745Z,1.40
2023-03-22T11:19:10.866Z,2.10
2023-03-22T11:21:38.666Z,1.60
2023-03-22T11:24:06.765Z,1.80
2023-03-22T11:26:38.823Z,1.60
2023-03-22T11:29:13.308Z,1.40
2023-03-22T11:31:48.687Z,1.20
2023-03-22T11:34:17.261Z,1.40
2023-03-22T11:36:45.436Z,2.40
2023-03-22T11:39:16.523Z,1.50
2023-03-22T11:41:45.295Z,1.40
2023-03-22T11:44:13.971Z,1.70
2023-03-22T11:46:55.055Z,0.90
2023-03-22T11:49:24.263Z,1.60
2023-03-22T11:51:54.463Z,1.20
2023-03-22T11:54:28.430Z,1.00
2023-03-22T11:57:02.227Z,1.20
2023-03-22T11:59:31.526Z,1.10
2023-03-22T12:02:10.787Z,0.90
2023-03-22T12:04:38.693Z,0.80
2023-03-22T12:07:15.475Z,0.90
2023-03-22T12:09:48.651Z,0.90
2023-03-22T12:12:19.924Z,1.10
2023-03-22T12:15:08.158Z,0.80
2023-03-22T12:17:37.699Z,0.90
2023-03-22T12:20:18.049Z,1.00
2023-03-22T12:22:51.026Z,0.80
2023-03-22T12:25:23.557Z,0.80
2023-03-22T12:27:57.718Z,0.90
2023-03-22T12:30:27.201Z,0.80
2023-03-22T12:32:58.963Z,0.70
2023-03-22T12:35:28.239Z,0.80
2023-03-22T12:37:57.086Z,0.70
2023-03-22T12:40:26.184Z,0.70
2023-03-22T12:43:00.370Z,0.80
2023-03-22T12:45:37.991Z,0.90
2023-03-22T12:48:08.407Z,1.10
2023-03-22T12:50:38.051Z,1.00
2023-03-22T12:53:12.178Z,1.30
2023-03-22T12:55:41.206Z,0.90
2023-03-22T12:58:13.287Z,0.90
2023-03-22T13:00:43.107Z,0.90
2023-03-22T13:03:17.983Z,0.70
2023-03-22T13:05:48.516Z,0.70
2023-03-22T13:08:20.205Z,0.60
2023-03-22T13:10:49.727Z,0.60
2023-03-22T13:13:17.659Z,0.70
2023-03-22T13:16:04.860Z,0.80
2023-03-22T13:18:35.701Z,0.80
2023-03-22T13:21:16.564Z,0.70
2023-03-22T13:24:09.999Z,0.80
2023-03-22T13:26:39.451Z,0.60
2023-03-22T13:29:18.790Z,0.60
2023-03-22T13:31:47.576Z,0.60
2023-03-22T13:34:16.873Z,0.60
2023-03-22T13:36:49.424Z,0.60
2023-03-22T13:39:17.696Z,0.60
2023-03-22T13:41:48.764Z,0.50
2023-03-22T13:44:28.282Z,0.60
2023-03-22T13:47:01.705Z,0.60
2023-03-22T13:49:32.537Z,0.70
2023-03-22T13:52:00.723Z,0.60
2023-03-22T13:54:38.777Z,0.60
2023-03-22T13:57:15.293Z,0.60
2023-03-22T14:00:09.588Z,0.50
2023-03-22T14:03:21.154Z,0.60
2023-03-22T14:05:49.406Z,0.50
2023-03-22T14:08:24.946Z,0.50
2023-03-22T14:10:55.005Z,0.60
2023-03-22T14:13:31.032Z,0.80
2023-03-22T14:16:02.625Z,0.90
2023-03-22T14:18:31.560Z,0.70
2023-03-22T14:21:00.253Z,0.70
